createdAt,value
2023-10-26T00:00:46.910Z,98757.97
2023-10-26T00:03:14.786Z,98760.66
2023-10-26T00:05:42.509Z,98760.69
2023-10-26T00:08:09.907Z,98762.44
2023-10-26T00:10:41.019Z,98753.63
2023-10-26T00:13:09.167Z,98749.16
2023-10-26T00:15:38.145Z,98744.81
2023-10-26T00:18:05.649Z,98735.94
2023-10-26T00:20:33.119Z,98726.09
2023-10-26T00:23:00.486Z,98725.09
2023-10-26T00:25:27.656Z,98730.25
2023-10-26T00:27:55.239Z,98742.53
2023-10-26T00:30:22.655Z,98739.91
2023-10-26T00:32:50.124Z,98742.53
2023-10-26T00:35:17.711Z,98738.09
2023-10-26T00:37:46.239Z,98732.78
2023-10-26T00:40:14.046Z,98727.41
2023-10-26T00:42:41.572Z,98729.91
2023-10-26T00:45:09.759Z,98728.91
2023-10-26T00:47:37.616Z,98725.44
2023-10-26T00:50:07.225Z,98713.09
2023-10-26T00:52:36.399Z,98716.69
2023-10-26T00:55:07.875Z,98715.81
2023-10-26T00:57:36.521Z,98718.50
2023-10-26T01:00:06.323Z,98727.41
2023-10-26T01:02:33.951Z,98734.53
2023-10-26T01:05:01.434Z,98741.63
2023-10-26T01:07:28.666Z,98735.50
2023-10-26T01:09:57.239Z,98733.81
2023-10-26T01:12:26.482Z,98726.75
2023-10-26T01:14:54.276Z,98719.66
2023-10-26T01:17:21.690Z,98717.03
2023-10-26T01:19:49.274Z,98722.31
2023-10-26T01:22:16.484Z,98724.03
2023-10-26T01:24:43.975Z,98723.97
2023-10-26T01:27:11.519Z,98724.72
2023-10-26T01:29:38.777Z,98728.28
2023-10-26T01:32:06.394Z,98736.19
2023-10-26T01:34:33.682Z,98741.47
2023-10-26T01:37:04.281Z,98736.44
2023-10-26T01:39:31.501Z,98729.38
2023-10-26T01:41:58.741Z,98732.88
2023-10-26T01:44:26.238Z,98729.47
2023-10-26T01:46:53.506Z,98726.88
2023-10-26T01:49:20.920Z,98730.47
2023-10-26T01:51:48.160Z,98737.41
2023-10-26T01:54:15.380Z,98735.63
2023-10-26T01:56:42.583Z,98738.22
2023-10-26T01:59:10.072Z,98733.81
2023-10-26T02:01:37.471Z,98731.22
2023-10-26T02:04:07.719Z,98733.00
2023-10-26T02:06:35.146Z,98732.13
2023-10-26T02:09:02.487Z,98724.31
2023-10-26T02:11:29.953Z,98725.97
2023-10-26T02:13:57.161Z,98725.94
2023-10-26T02:16:24.410Z,98731.19
2023-10-26T02:18:51.700Z,98731.19
2023-10-26T02:21:18.969Z,98730.25
2023-10-26T02:23:46.468Z,98734.63
2023-10-26T02:26:13.726Z,98738.97
2023-10-26T02:28:41.033Z,98735.34
2023-10-26T02:31:08.312Z,98729.16
2023-10-26T02:33:35.571Z,98722.16
2023-10-26T02:36:05.725Z,98726.50
2023-10-26T02:38:33.748Z,98728.28
2023-10-26T02:41:06.204Z,98729.13
2023-10-26T02:43:33.570Z,98720.38
2023-10-26T02:46:09.725Z,98720.38
2023-10-26T02:48:38.664Z,98722.22
2023-10-26T02:51:07.107Z,98723.84
2023-10-26T02:53:34.823Z,98714.25
2023-10-26T02:56:02.111Z,98720.44
2023-10-26T02:58:29.396Z,98716.91
2023-10-26T03:00:56.855Z,98731.44
2023-10-26T03:03:26.754Z,98714.66
2023-10-26T03:05:54.177Z,98704.97
2023-10-26T03:08:21.731Z,98714.63
2023-10-26T03:10:48.973Z,98704.91
2023-10-26T03:13:16.369Z,98716.09
2023-10-26T03:15:43.822Z,98722.09
2023-10-26T03:18:11.569Z,98711.50
2023-10-26T03:20:38.921Z,98714.94
2023-10-26T03:23:06.352Z,98723.56
2023-10-26T03:25:33.592Z,98708.69
2023-10-26T03:28:01.137Z,98713.81
2023-10-26T03:30:29.203Z,98720.88
2023-10-26T03:32:56.719Z,98721.63
2023-10-26T03:35:24.628Z,98719.84
2023-10-26T03:37:52.080Z,98725.00
2023-10-26T03:40:19.333Z,98732.94
2023-10-26T03:42:46.578Z,98726.13
2023-10-26T03:45:14.197Z,98726.19
2023-10-26T03:47:42.259Z,98728.88
2023-10-26T03:50:10.116Z,98728.91
2023-10-26T03:52:37.929Z,98725.44
2023-10-26T03:55:06.026Z,98723.72
2023-10-26T03:57:34.906Z,98729.94
2023-10-26T04:00:04.170Z,98729.94
2023-10-26T04:02:39.232Z,98735.06
2023-10-26T04:05:07.455Z,98728.97
2023-10-26T04:07:35.334Z,98724.41
2023-10-26T04:10:06.684Z,98731.56
2023-10-26T04:12:34.491Z,98733.31
2023-10-26T04:15:02.903Z,98724.31
2023-10-26T04:17:30.437Z,98706.66
2023-10-26T04:19:58.736Z,98705.13
2023-10-26T04:22:28.209Z,98701.53
2023-10-26T04:24:55.425Z,98713.56
2023-10-26T04:27:22.854Z,98713.47
2023-10-26T04:29:50.730Z,98713.41
2023-10-26T04:32:18.098Z,98711.59
2023-10-26T04:34:45.880Z,98695.06
2023-10-26T04:37:13.439Z,98696.69
2023-10-26T04:39:44.677Z,98699.31
2023-10-26T04:42:14.059Z,98693.88
2023-10-26T04:44:42.215Z,98709.72
2023-10-26T04:47:09.892Z,98721.97
2023-10-26T04:49:37.193Z,98721.75
2023-10-26T04:52:05.002Z,98721.69
2023-10-26T04:54:32.275Z,98720.00
2023-10-26T04:56:59.607Z,98712.06
2023-10-26T04:59:26.947Z,98711.16
2023-10-26T05:01:54.170Z,98718.09
2023-10-26T05:04:21.383Z,98721.97
2023-10-26T05:06:48.726Z,98712.34
2023-10-26T05:09:16.083Z,98713.97
2023-10-26T05:11:43.411Z,98704.13
2023-10-26T05:14:10.720Z,98708.28
2023-10-26T05:16:38.305Z,98702.13
2023-10-26T05:19:05.655Z,98691.66
2023-10-26T05:21:32.958Z,98685.75
2023-10-26T05:24:00.426Z,98673.56
2023-10-26T05:26:27.736Z,98680.59
2023-10-26T05:28:54.998Z,98676.41
2023-10-26T05:31:22.316Z,98673.81
2023-10-26T05:33:49.609Z,98680.16
2023-10-26T05:36:16.890Z,98686.09
2023-10-26T05:38:45.982Z,98694.69
2023-10-26T05:41:14.583Z,98695.41
2023-10-26T05:43:41.917Z,98710.13
2023-10-26T05:46:09.143Z,98702.06
2023-10-26T05:48:36.387Z,98702.91
2023-10-26T05:51:04.245Z,98703.69
2023-10-26T05:53:31.573Z,98715.22
2023-10-26T05:56:00.047Z,98730.06
2023-10-26T05:58:28.128Z,98737.09
2023-10-26T06:00:55.422Z,98733.72
2023-10-26T06:03:23.007Z,98747.81
2023-10-26T06:05:50.307Z,98753.06
2023-10-26T06:08:17.899Z,98743.06
2023-10-26T06:10:45.162Z,98744.75
2023-10-26T06:13:12.533Z,98737.78
2023-10-26T06:15:39.861Z,98723.78
2023-10-26T06:18:07.227Z,98727.41
2023-10-26T06:20:34.706Z,98726.28
2023-10-26T06:23:01.984Z,98742.34
2023-10-26T06:25:30.111Z,98753.06
2023-10-26T06:27:57.790Z,98748.03
2023-10-26T06:30:28.161Z,98749.91
2023-10-26T06:32:55.719Z,98772.88
2023-10-26T06:35:23.119Z,98778.19
2023-10-26T06:37:50.480Z,98765.94
2023-10-26T06:40:20.590Z,98763.31
2023-10-26T06:42:47.795Z,98765.84
2023-10-26T06:45:15.068Z,98760.31
2023-10-26T06:47:44.166Z,98765.81
2023-10-26T06:50:11.573Z,98754.28
2023-10-26T06:52:38.937Z,98746.56
2023-10-26T06:55:15.708Z,98742.56
2023-10-26T06:57:51.517Z,98753.06
2023-10-26T07:00:19.608Z,98750.44
2023-10-26T07:02:48.646Z,98740.75
2023-10-26T07:05:17.148Z,98727.88
2023-10-26T07:07:44.443Z,98713.38
2023-10-26T07:10:19.881Z,98718.41
2023-10-26T07:12:48.041Z,98731.19
2023-10-26T07:15:15.468Z,98738.69
2023-10-26T07:17:42.760Z,98753.84
2023-10-26T07:20:14.033Z,98743.28
2023-10-26T07:22:43.705Z,98746.72
2023-10-26T07:25:11.145Z,98768.88
2023-10-26T07:27:39.417Z,98774.06
2023-10-26T07:30:08.204Z,98771.44
2023-10-26T07:32:35.566Z,98779.25
2023-10-26T07:35:03.448Z,98769.09
2023-10-26T07:37:31.145Z,98744.66
2023-10-26T07:40:28.425Z,98758.59
2023-10-26T07:42:45.700Z,98762.00
2023-10-26T07:45:13.593Z,98752.63
2023-10-26T07:47:41.096Z,98750.16
2023-10-26T07:50:09.509Z,98752.75
2023-10-26T07:52:36.738Z,98741.34
2023-10-26T07:55:04.532Z,98719.63
2023-10-26T07:57:32.468Z,98709.06
2023-10-26T07:59:59.794Z,98720.53
2023-10-26T08:02:27.177Z,98747.50
2023-10-26T08:04:54.789Z,98753.94
2023-10-26T08:07:22.129Z,98767.34
2023-10-26T08:09:49.703Z,98744.75
2023-10-26T08:12:17.668Z,98719.50
2023-10-26T08:16:10.056Z,98717.19
2023-10-26T08:17:37.211Z,98732.97
2023-10-26T08:20:08.434Z,98732.84
2023-10-26T08:22:36.316Z,98739.66
2023-10-26T08:25:05.440Z,98752.00
2023-10-26T08:27:33.100Z,98749.50
2023-10-26T08:30:00.567Z,98743.38
2023-10-26T08:32:27.906Z,98740.81
2023-10-26T08:34:55.206Z,98746.97
2023-10-26T08:37:23.228Z,98759.31
2023-10-26T08:39:51.931Z,98777.72
2023-10-26T08:42:20.459Z,98771.63
2023-10-26T08:44:48.191Z,98765.72
2023-10-26T08:47:20.569Z,98761.81
2023-10-26T08:50:08.042Z,98751.47
2023-10-26T08:52:42.442Z,98758.13
2023-10-26T08:55:10.333Z,98769.63
2023-10-26T08:57:56.011Z,98792.38
2023-10-26T09:00:24.442Z,98805.38
2023-10-26T09:02:52.231Z,98806.09
2023-10-26T09:05:20.042Z,98811.38
2023-10-26T09:07:47.531Z,98804.47
2023-10-26T09:10:29.814Z,98802.91
2023-10-26T09:13:07.166Z,98817.19
2023-10-26T09:15:58.621Z,98813.88
2023-10-26T09:18:28.714Z,98815.78
2023-10-26T09:21:08.874Z,98806.28
2023-10-26T09:23:41.352Z,98812.59
2023-10-26T09:26:10.910Z,98802.22
2023-10-26T09:28:56.253Z,98786.66
2023-10-26T09:31:26.798Z,98778.09
2023-10-26T09:33:54.323Z,98764.91
2023-10-26T09:36:21.946Z,98760.50
2023-10-26T09:38:49.375Z,98765.66
2023-10-26T09:41:20.340Z,98776.94
2023-10-26T09:43:49.247Z,98788.13
2023-10-26T09:46:19.420Z,98788.13
2023-10-26T09:48:47.690Z,98781.31
2023-10-26T09:51:16.472Z,98779.69
2023-10-26T09:53:48.306Z,98792.97
2023-10-26T09:56:27.038Z,98785.13
2023-10-26T09:58:55.011Z,98777.22
2023-10-26T10:01:43.689Z,98774.47
2023-10-26T10:04:12.357Z,98775.38
2023-10-26T10:06:55.204Z,98769.22
2023-10-26T10:09:30.072Z,98768.25
2023-10-26T10:12:07.219Z,98755.59
2023-10-26T10:14:49.754Z,98760.78
2023-10-26T10:17:23.160Z,98750.13
2023-10-26T10:20:15.285Z,98726.59
2023-10-26T10:22:45.225Z,98714.59
2023-10-26T10:25:13.458Z,98713.84
2023-10-26T10:28:00.774Z,98697.81
2023-10-26T10:30:48.318Z,98698.91
2023-10-26T10:33:28.662Z,98703.13
2023-10-26T10:36:09.121Z,98712.88
2023-10-26T10:38:36.738Z,98733.97
2023-10-26T10:41:03.909Z,98751.91
2023-10-26T10:43:37.511Z,98761.56
2023-10-26T10:46:19.860Z,98753.66
2023-10-26T10:49:12.494Z,98741.47
2023-10-26T10:51:44.054Z,98747.78
2023-10-26T10:54:30.759Z,98738.13
2023-10-26T10:57:06.620Z,98745.06
2023-10-26T10:59:34.004Z,98737.28
2023-10-26T11:02:14.707Z,98748.81
2023-10-26T11:05:17.775Z,98764.72
2023-10-26T11:07:45.734Z,98762.97
2023-10-26T11:10:13.133Z,98751.63
2023-10-26T11:12:40.556Z,98739.41
2023-10-26T11:15:09.459Z,98737.56
2023-10-26T11:17:40.390Z,98727.13
2023-10-26T11:20:42.532Z,98731.72
2023-10-26T11:23:13.149Z,98744.09
2023-10-26T11:25:41.267Z,98745.81
2023-10-26T11:28:09.943Z,98751.06
2023-10-26T11:30:56.314Z,98732.59
2023-10-26T11:33:38.697Z,98707.88
2023-10-26T11:36:14.504Z,98696.59
2023-10-26T11:38:52.354Z,98708.09
2023-10-26T11:41:32.035Z,98699.34
2023-10-26T11:43:59.682Z,98687.91
2023-10-26T11:46:36.833Z,98679.16
2023-10-26T11:49:06.870Z,98689.72
2023-10-26T11:51:35.984Z,98692.34
2023-10-26T11:54:13.374Z,98689.53
2023-10-26T11:56:40.748Z,98676.38
2023-10-26T11:59:08.004Z,98672.88
2023-10-26T12:01:35.376Z,98661.38
2023-10-26T12:04:02.799Z,98659.59
2023-10-26T12:06:31.630Z,98649.03
2023-10-26T12:08:58.885Z,98642.03
2023-10-26T12:11:26.523Z,98650.84
2023-10-26T12:13:53.760Z,98661.28
2023-10-26T12:16:21.117Z,98668.34
2023-10-26T12:18:48.353Z,98663.75
2023-10-26T12:21:16.632Z,98666.53
2023-10-26T12:23:43.804Z,98659.56
2023-10-26T12:26:11.276Z,98659.41
2023-10-26T12:28:38.464Z,98658.53
2023-10-26T12:31:05.921Z,98656.81
2023-10-26T12:33:36.890Z,98654.34
2023-10-26T12:36:06.620Z,98646.66
2023-10-26T12:38:33.930Z,98645.84
2023-10-26T12:41:01.216Z,98629.03
2023-10-26T12:43:28.457Z,98622.84
2023-10-26T12:45:55.854Z,98615.13
2023-10-26T12:48:23.228Z,98612.19
2023-10-26T12:50:50.458Z,98607.00
2023-10-26T12:53:17.863Z,98598.31
2023-10-26T12:55:48.178Z,98589.59
2023-10-26T12:58:16.078Z,98592.97
2023-10-26T13:00:43.604Z,98584.16
2023-10-26T13:03:10.962Z,98592.28
2023-10-26T13:05:38.409Z,98600.28
2023-10-26T13:08:05.814Z,98592.41
2023-10-26T13:10:33.205Z,98601.22
2023-10-26T13:13:00.511Z,98585.28
2023-10-26T13:15:27.913Z,98564.28
2023-10-26T13:17:55.197Z,98571.41
2023-10-26T13:20:24.043Z,98567.88
2023-10-26T13:22:51.358Z,98571.31
2023-10-26T13:25:18.584Z,98573.91
2023-10-26T13:27:45.921Z,98581.69
2023-10-26T13:30:15.157Z,98591.25
2023-10-26T13:32:43.379Z,98590.31
2023-10-26T13:35:12.216Z,98586.94
2023-10-26T13:37:39.763Z,98584.34
2023-10-26T13:40:10.204Z,98579.91
2023-10-26T13:42:37.577Z,98579.94
2023-10-26T13:45:05.980Z,98576.31
2023-10-26T13:47:33.444Z,98574.50
2023-10-26T13:50:00.713Z,98571.84
2023-10-26T13:52:30.869Z,98583.31
2023-10-26T13:54:58.293Z,98581.63
2023-10-26T13:57:25.652Z,98579.00
2023-10-26T13:59:52.896Z,98575.50
2023-10-26T14:02:20.958Z,98570.19
2023-10-26T14:04:48.222Z,98564.94
2023-10-26T14:07:16.587Z,98564.94
2023-10-26T14:09:45.066Z,98571.06
2023-10-26T14:12:13.973Z,98566.69
2023-10-26T14:14:41.299Z,98572.81
2023-10-26T14:17:08.571Z,98568.38
2023-10-26T14:19:35.825Z,98552.50
2023-10-26T14:22:04.935Z,98549.03
2023-10-26T14:24:32.534Z,98542.03
2023-10-26T14:26:59.994Z,98551.72
2023-10-26T14:29:27.421Z,98553.47
2023-10-26T14:31:54.642Z,98547.28
2023-10-26T14:34:21.915Z,98542.97
2023-10-26T14:36:49.168Z,98532.47
2023-10-26T14:39:16.443Z,98520.19
2023-10-26T14:41:44.194Z,98517.53
2023-10-26T14:44:11.439Z,98514.84
2023-10-26T14:46:38.728Z,98521.88
2023-10-26T14:49:06.112Z,98508.66
2023-10-26T14:51:33.562Z,98505.09
2023-10-26T14:54:00.869Z,98505.13
2023-10-26T14:56:28.099Z,98513.06
2023-10-26T14:58:56.529Z,98504.31
2023-10-26T15:01:23.943Z,98513.91
2023-10-26T15:03:51.247Z,98512.19
2023-10-26T15:06:18.447Z,98520.06
2023-10-26T15:08:45.701Z,98534.03
2023-10-26T15:11:24.267Z,98538.38
2023-10-26T15:13:55.162Z,98531.34
2023-10-26T15:16:22.820Z,98530.56
2023-10-26T15:18:50.254Z,98517.38
2023-10-26T15:21:17.556Z,98527.88
2023-10-26T15:23:44.774Z,98527.78
2023-10-26T15:26:11.981Z,98538.28
2023-10-26T15:28:39.435Z,98534.78
2023-10-26T15:31:07.393Z,98529.50
2023-10-26T15:33:34.691Z,98533.88
2023-10-26T15:36:04.583Z,98525.97
2023-10-26T15:38:32.337Z,98525.94
2023-10-26T15:41:06.856Z,98517.16
2023-10-26T15:43:35.541Z,98508.34
2023-10-26T15:46:06.028Z,98509.22
2023-10-26T15:49:32.912Z,98501.38
2023-10-26T15:51:22.919Z,98495.19
2023-10-26T15:53:50.282Z,98501.34
2023-10-26T15:56:17.570Z,98512.69
2023-10-26T15:58:44.859Z,98515.25
2023-10-26T16:01:12.257Z,98517.00
2023-10-26T16:03:39.640Z,98513.47
2023-10-26T16:06:10.304Z,98516.97
2023-10-26T16:08:39.185Z,98509.06
2023-10-26T16:11:12.134Z,98493.25
2023-10-26T16:13:40.039Z,98483.47
2023-10-26T16:16:07.546Z,98481.69
2023-10-26T16:18:34.871Z,98486.13
2023-10-26T16:21:02.763Z,98494.88
2023-10-26T16:23:30.322Z,98488.56
2023-10-26T16:25:59.212Z,98492.94
2023-10-26T16:28:26.692Z,98487.78
2023-10-26T16:31:00.871Z,98474.66
2023-10-26T16:33:28.789Z,98473.81
2023-10-26T16:35:58.197Z,98463.25
2023-10-26T16:38:26.648Z,98451.00
2023-10-26T16:40:53.953Z,98443.09
2023-10-26T16:43:21.625Z,98438.69
2023-10-26T16:45:49.007Z,98436.00
2023-10-26T16:48:17.456Z,98438.66
2023-10-26T16:50:45.142Z,98430.78
2023-10-26T16:53:27.232Z,98440.41
2023-10-26T16:56:03.201Z,98453.59
2023-10-26T16:58:35.156Z,98457.00
2023-10-26T17:01:09.210Z,98451.75
2023-10-26T17:03:37.490Z,98447.41
2023-10-26T17:06:05.638Z,98443.06
2023-10-26T17:08:33.212Z,98437.78
2023-10-26T17:11:00.530Z,98441.25
2023-10-26T17:13:27.813Z,98450.91
2023-10-26T17:15:55.304Z,98463.94
2023-10-26T17:18:23.163Z,98454.88
2023-10-26T17:20:50.721Z,98453.97
2023-10-26T17:23:18.011Z,98439.16
2023-10-26T17:25:45.374Z,98435.72
2023-10-26T17:28:12.674Z,98426.06
2023-10-26T17:30:40.730Z,98419.06
2023-10-26T17:33:11.667Z,98413.81
2023-10-26T17:35:48.577Z,98412.94
2023-10-26T17:38:16.172Z,98401.53
2023-10-26T17:40:46.290Z,98415.56
2023-10-26T17:43:14.970Z,98406.72
2023-10-26T17:45:42.660Z,98403.28
2023-10-26T17:48:10.803Z,98399.75
2023-10-26T17:50:41.864Z,98398.00
2023-10-26T17:53:09.610Z,98410.28
2023-10-26T17:55:37.390Z,98396.25
2023-10-26T17:58:04.616Z,98393.63
2023-10-26T18:00:31.873Z,98390.09
2023-10-26T18:02:59.285Z,98378.69
2023-10-26T18:05:26.568Z,98366.41
2023-10-26T18:07:55.105Z,98366.41
2023-10-26T18:10:22.914Z,98363.78
2023-10-26T18:12:50.545Z,98359.38
2023-10-26T18:15:17.844Z,98343.59
2023-10-26T18:17:45.150Z,98334.84
2023-10-26T18:20:12.770Z,98327.78
2023-10-26T18:22:40.489Z,98332.22
2023-10-26T18:25:10.487Z,98348.84
2023-10-26T18:27:37.945Z,98351.44
2023-10-26T18:30:06.935Z,98354.97
2023-10-26T18:32:34.356Z,98359.34
2023-10-26T18:35:04.359Z,98368.13
2023-10-26T18:37:31.572Z,98372.41
2023-10-26T18:39:59.761Z,98378.63
2023-10-26T18:42:27.168Z,98369.84
2023-10-26T18:44:54.596Z,98361.97
2023-10-26T18:47:21.780Z,98374.25
2023-10-26T18:49:50.919Z,98365.50
2023-10-26T18:52:18.382Z,98352.34
2023-10-26T18:54:45.657Z,98347.09
2023-10-26T18:57:12.897Z,98338.31
2023-10-26T18:59:40.159Z,98336.53
2023-10-26T19:02:07.562Z,98342.69
2023-10-26T19:04:35.072Z,98348.81
2023-10-26T19:07:03.920Z,98353.16
2023-10-26T19:09:32.424Z,98357.50
2023-10-26T19:11:59.671Z,98348.75
2023-10-26T19:14:26.916Z,98335.59
2023-10-26T19:16:54.302Z,98347.00
2023-10-26T19:19:21.563Z,98353.13
2023-10-26T19:21:48.872Z,98357.53
2023-10-26T19:24:17.092Z,98343.50
2023-10-26T19:26:44.461Z,98343.50
2023-10-26T19:29:12.046Z,98338.22
2023-10-26T19:31:39.430Z,98345.25
2023-10-26T19:34:06.711Z,98338.19
2023-10-26T19:36:34.035Z,98345.25
2023-10-26T19:39:01.582Z,98340.81
2023-10-26T19:41:28.885Z,98338.19
2023-10-26T19:43:56.165Z,98335.53
2023-10-26T19:46:23.617Z,98342.56
2023-10-26T19:48:51.007Z,98332.09
2023-10-26T19:51:18.494Z,98318.91
2023-10-26T19:53:48.549Z,98318.91
2023-10-26T19:56:15.912Z,98318.03
2023-10-26T19:58:43.180Z,98322.41
2023-10-26T20:01:16.724Z,98307.50
2023-10-26T20:03:44.291Z,98308.41
2023-10-26T20:06:11.650Z,98297.00
2023-10-26T20:08:38.881Z,98303.16
2023-10-26T20:11:06.220Z,98297.00
2023-10-26T20:13:33.497Z,98292.63
2023-10-26T20:16:00.755Z,98297.88
2023-10-26T20:18:29.592Z,98299.63
2023-10-26T20:20:57.488Z,98290.81
2023-10-26T20:23:24.695Z,98289.97
2023-10-26T20:25:51.953Z,98296.06
2023-10-26T20:28:20.132Z,98299.63
2023-10-26T20:30:47.689Z,98290.81
2023-10-26T20:33:15.161Z,98288.19
2023-10-26T20:35:42.510Z,98285.53
2023-10-26T20:38:09.742Z,98283.81
2023-10-26T20:40:43.487Z,98277.66
2023-10-26T20:43:10.774Z,98284.66
2023-10-26T20:45:38.178Z,98288.91
2023-10-26T20:48:05.868Z,98288.84
2023-10-26T20:50:33.814Z,98275.69
2023-10-26T20:53:01.930Z,98271.31
2023-10-26T20:55:29.149Z,98264.28
2023-10-26T20:57:56.436Z,98262.53
2023-10-26T21:00:23.743Z,98251.16
2023-10-26T21:02:51.110Z,98240.63
2023-10-26T21:05:18.531Z,98222.22
2023-10-26T21:07:46.887Z,98222.22
2023-10-26T21:10:14.308Z,98207.34
2023-10-26T21:12:41.707Z,98208.22
2023-10-26T21:15:09.898Z,98207.34
2023-10-26T21:17:37.705Z,98195.94
2023-10-26T21:20:09.088Z,98195.94
2023-10-26T21:22:36.875Z,98181.97
2023-10-26T21:25:05.850Z,98177.56
2023-10-26T21:27:33.112Z,98167.91
2023-10-26T21:30:00.386Z,98158.31
2023-10-26T21:32:27.787Z,98150.41
2023-10-26T21:34:55.181Z,98146.03
2023-10-26T21:37:22.529Z,98139.03
2023-10-26T21:39:49.823Z,98146.03
2023-10-26T21:42:17.568Z,98156.56
2023-10-26T21:44:44.976Z,98145.16
2023-10-26T21:47:12.282Z,98132.88
2023-10-26T21:49:39.631Z,98125.84
2023-10-26T21:52:07.068Z,98129.34
2023-10-26T21:54:34.319Z,98131.13
2023-10-26T21:57:01.698Z,98125.88
2023-10-26T21:59:29.366Z,98117.13
2023-10-26T22:01:56.727Z,98121.50
2023-10-26T22:04:24.556Z,98107.50
2023-10-26T22:06:52.131Z,98103.97
2023-10-26T22:09:22.100Z,98096.09
2023-10-26T22:11:49.508Z,98080.34
2023-10-26T22:14:16.788Z,98082.97
2023-10-26T22:16:44.273Z,98074.22
2023-10-26T22:19:11.696Z,98062.81
2023-10-26T22:21:39.034Z,98069.84
2023-10-26T22:24:07.844Z,98072.47
2023-10-26T22:26:35.257Z,98071.59
2023-10-26T22:29:04.444Z,98066.34
2023-10-26T22:31:32.735Z,98067.19
2023-10-26T22:34:00.907Z,98060.19
2023-10-26T22:36:29.094Z,98065.44
2023-10-26T22:38:59.252Z,98068.06
2023-10-26T22:41:26.519Z,98064.56
2023-10-26T22:43:55.035Z,98051.44
2023-10-26T22:46:22.358Z,98037.41
2023-10-26T22:48:50.323Z,98034.78
2023-10-26T22:51:17.591Z,98029.53
2023-10-26T22:53:45.700Z,98024.28
2023-10-26T22:56:20.715Z,98036.53
2023-10-26T22:58:49.289Z,98022.53
2023-10-26T23:01:16.480Z,98012.00
2023-10-26T23:03:43.695Z,98011.13
2023-10-26T23:06:10.902Z,98013.75
2023-10-26T23:08:38.127Z,97994.47
2023-10-26T23:11:05.355Z,97987.47
2023-10-26T23:13:32.723Z,98003.25
2023-10-26T23:16:00.125Z,98012.03
2023-10-26T23:18:27.505Z,98005.00
2023-10-26T23:20:54.834Z,97998.00
2023-10-26T23:23:21.998Z,97999.75
2023-10-26T23:25:49.437Z,97991.00
2023-10-26T23:28:16.808Z,97975.22
2023-10-26T23:30:44.047Z,97981.31
2023-10-26T23:33:11.763Z,97969.97
2023-10-26T23:35:42.215Z,97969.06
2023-10-26T23:38:09.662Z,97956.84
2023-10-26T23:40:37.005Z,97955.94
2023-10-26T23:43:04.401Z,97954.22
2023-10-26T23:45:31.663Z,97948.06
2023-10-26T23:47:59.607Z,97943.69
2023-10-26T23:50:26.975Z,97943.69
2023-10-26T23:52:54.170Z,97937.56
2023-10-26T23:55:21.549Z,97922.69
2023-10-26T23:57:49.029Z,97928.78
